createdAt,value
2019-02-23T00:00:06.991Z,2.00
2019-02-23T00:02:35.496Z,1.90
2019-02-23T00:05:03.989Z,1.67
2019-02-23T00:07:32.785Z,2.10
2019-02-23T00:10:01.284Z,2.07
2019-02-23T00:12:29.775Z,2.20
2019-02-23T00:14:58.277Z,2.50
2019-02-23T00:17:26.769Z,2.90
2019-02-23T00:19:55.305Z,2.60
2019-02-23T00:22:23.800Z,1.97
2019-02-23T00:24:52.290Z,2.80
2019-02-23T00:27:20.804Z,2.03
2019-02-23T00:29:49.307Z,2.57
2019-02-23T00:32:17.843Z,2.50
2019-02-23T00:34:46.330Z,2.07
2019-02-23T00:37:14.823Z,2.10
2019-02-23T00:39:43.332Z,1.90
2019-02-23T00:42:11.825Z,2.20
2019-02-23T00:44:40.363Z,2.50
2019-02-23T00:47:08.858Z,1.90
2019-02-23T00:49:37.353Z,2.43
2019-02-23T00:52:05.861Z,2.80
2019-02-23T00:54:34.365Z,2.57
2019-02-23T00:57:02.906Z,2.40
2019-02-23T00:59:31.401Z,3.03
2019-02-23T01:01:59.893Z,2.97
2019-02-23T01:04:28.420Z,3.07
2019-02-23T01:06:56.920Z,2.97
2019-02-23T01:09:25.476Z,2.70
2019-02-23T01:11:53.976Z,2.90
2019-02-23T01:14:22.479Z,2.93
2019-02-23T01:16:50.982Z,3.10
2019-02-23T01:19:19.478Z,2.47
2019-02-23T01:21:48.028Z,2.80
2019-02-23T01:24:16.536Z,2.57
2019-02-23T01:26:45.043Z,2.83
2019-02-23T01:29:13.551Z,3.40
2019-02-23T01:31:42.068Z,4.23
2019-02-23T01:34:10.603Z,3.20
2019-02-23T01:36:39.089Z,3.00
2019-02-23T01:39:07.586Z,3.43
2019-02-23T01:41:36.090Z,2.67
2019-02-23T01:44:04.585Z,3.60
2019-02-23T01:46:33.117Z,2.80
2019-02-23T01:49:01.615Z,3.47
2019-02-23T01:51:30.109Z,2.70
2019-02-23T01:53:58.618Z,3.20
2019-02-23T01:56:27.118Z,2.90
2019-02-23T01:58:55.679Z,2.77
2019-02-23T02:01:24.193Z,2.67
2019-02-23T02:03:52.671Z,2.47
2019-02-23T02:06:21.182Z,3.40
2019-02-23T02:08:49.676Z,1.97
2019-02-23T02:11:18.419Z,3.00
2019-02-23T02:13:46.915Z,3.00
2019-02-23T02:16:15.417Z,3.13
2019-02-23T02:18:44.127Z,2.87
2019-02-23T02:21:12.626Z,3.17
2019-02-23T02:23:41.166Z,2.67
2019-02-23T02:26:09.673Z,2.73
2019-02-23T02:28:38.171Z,3.30
2019-02-23T02:31:06.689Z,4.70
2019-02-23T02:33:38.309Z,3.00
2019-02-23T02:36:06.849Z,4.10
2019-02-23T02:38:35.349Z,4.67
2019-02-23T02:41:03.852Z,4.30
2019-02-23T02:43:32.358Z,4.20
2019-02-23T02:46:00.862Z,4.00
2019-02-23T02:48:29.481Z,4.30
2019-02-23T02:50:57.927Z,3.83
2019-02-23T02:53:26.424Z,4.97
2019-02-23T02:55:54.957Z,6.47
2019-02-23T02:58:23.437Z,8.80
2019-02-23T03:00:51.944Z,10.47
2019-02-23T03:03:20.462Z,10.87
2019-02-23T03:05:48.964Z,6.37
2019-02-23T03:08:17.460Z,6.13
2019-02-23T03:10:46.016Z,6.90
2019-02-23T03:13:14.516Z,6.50
2019-02-23T03:15:43.030Z,6.57
2019-02-23T03:18:11.579Z,4.80
2019-02-23T03:20:40.081Z,7.67
2019-02-23T03:23:08.585Z,6.57
2019-02-23T03:25:37.085Z,6.43
2019-02-23T03:28:05.592Z,6.50
2019-02-23T03:30:34.145Z,6.80
2019-02-23T03:33:03.300Z,6.50
2019-02-23T03:35:31.813Z,6.57
2019-02-23T03:38:00.329Z,6.23
2019-02-23T03:40:28.835Z,6.80
2019-02-23T03:42:57.374Z,6.80
2019-02-23T03:45:25.880Z,7.67
2019-02-23T03:47:54.407Z,6.42
2019-02-23T03:50:22.919Z,6.47
2019-02-23T03:52:51.419Z,8.27
2019-02-23T03:55:19.968Z,6.30
2019-02-23T03:57:48.465Z,5.67
2019-02-23T04:00:16.963Z,7.17
2019-02-23T04:02:45.468Z,6.50
2019-02-23T04:05:13.976Z,6.25
2019-02-23T04:07:42.531Z,6.67
2019-02-23T04:10:11.043Z,6.27
2019-02-23T04:12:39.544Z,6.60
2019-02-23T04:15:08.150Z,5.60
2019-02-23T04:17:36.653Z,8.30
2019-02-23T04:20:07.209Z,10.40
2019-02-23T04:22:35.711Z,6.60
2019-02-23T04:25:05.120Z,6.47
2019-02-23T04:27:33.633Z,5.97
2019-02-23T04:30:02.134Z,8.40
2019-02-23T04:32:30.676Z,7.90
2019-02-23T04:34:59.175Z,6.67
2019-02-23T04:37:27.675Z,5.93
2019-02-23T04:39:56.201Z,5.90
2019-02-23T04:42:24.698Z,5.27
2019-02-23T04:44:53.244Z,7.40
2019-02-23T04:47:21.756Z,11.67
2019-02-23T04:49:53.375Z,7.03
2019-02-23T04:52:21.903Z,7.72
2019-02-23T04:54:50.426Z,7.42
2019-02-23T04:57:19.302Z,8.05
2019-02-23T04:59:47.802Z,10.18
2019-02-23T05:02:16.305Z,6.73
2019-02-23T05:04:44.821Z,6.65
2019-02-23T05:07:13.327Z,8.10
2019-02-23T05:09:41.910Z,7.30
2019-02-23T05:12:10.432Z,7.90
2019-02-23T05:14:38.938Z,7.23
2019-02-23T05:17:07.439Z,8.03
2019-02-23T05:19:35.942Z,7.00
2019-02-23T05:22:04.487Z,8.63
2019-02-23T05:24:32.994Z,8.40
2019-02-23T05:27:01.499Z,7.77
2019-02-23T05:29:30.014Z,7.43
2019-02-23T05:31:58.513Z,6.80
2019-02-23T05:34:27.059Z,6.03
2019-02-23T05:36:55.557Z,7.23
2019-02-23T05:39:24.069Z,6.47
2019-02-23T05:41:52.569Z,8.13
2019-02-23T05:44:21.063Z,5.50
2019-02-23T05:46:50.840Z,9.57
2019-02-23T05:49:19.337Z,7.93
2019-02-23T05:51:47.842Z,8.33
2019-02-23T05:54:16.350Z,9.77
2019-02-23T05:56:44.859Z,8.80
2019-02-23T05:59:13.403Z,9.07
2019-02-23T06:01:41.913Z,12.97
2019-02-23T06:04:10.412Z,8.80
2019-02-23T06:06:38.928Z,7.27
2019-02-23T06:09:07.429Z,13.10
2019-02-23T06:11:35.998Z,8.57
2019-02-23T06:14:04.511Z,105.07
2019-02-23T06:16:33.019Z,50.93
2019-02-23T06:19:01.545Z,51.17
2019-02-23T06:21:30.054Z,31.17
2019-02-23T06:23:58.645Z,67.97
2019-02-23T06:26:27.150Z,69.53
2019-02-23T06:28:55.651Z,21.73
2019-02-23T06:31:24.166Z,9.27
2019-02-23T06:33:52.672Z,33.47
2019-02-23T06:36:21.215Z,22.40
2019-02-23T06:38:49.716Z,7.50
2019-02-23T06:41:18.215Z,8.03
2019-02-23T06:43:46.732Z,7.93
2019-02-23T06:46:15.234Z,7.37
2019-02-23T06:48:43.806Z,10.17
2019-02-23T06:51:12.303Z,9.10
2019-02-23T06:53:40.802Z,9.20
2019-02-23T06:56:09.314Z,7.33
2019-02-23T06:58:37.812Z,8.07
2019-02-23T07:01:06.430Z,8.60
2019-02-23T07:03:34.951Z,8.77
2019-02-23T07:06:03.463Z,10.57
2019-02-23T07:08:31.972Z,21.63
2019-02-23T07:11:00.470Z,9.93
2019-02-23T07:13:29.019Z,9.20
2019-02-23T07:15:57.524Z,10.90
2019-02-23T07:18:26.032Z,10.63
2019-02-23T07:20:54.555Z,10.10
2019-02-23T07:23:23.059Z,10.20
2019-02-23T07:25:51.615Z,10.13
2019-02-23T07:28:20.122Z,12.33
2019-02-23T07:30:48.624Z,8.17
2019-02-23T07:33:29.539Z,7.60
2019-02-23T07:35:47.369Z,7.37
2019-02-23T07:38:15.922Z,20.00
2019-02-23T07:40:44.427Z,10.03
2019-02-23T07:43:12.952Z,11.93
2019-02-23T07:45:41.466Z,10.73
2019-02-23T07:48:09.978Z,10.70
2019-02-23T07:50:38.526Z,11.83
2019-02-23T07:53:07.044Z,11.77
2019-02-23T07:55:35.623Z,11.93
2019-02-23T07:58:04.143Z,10.83
2019-02-23T08:00:32.647Z,13.47
2019-02-23T08:03:01.188Z,9.10
2019-02-23T08:05:29.688Z,6.40
2019-02-23T08:07:58.200Z,6.90
2019-02-23T08:10:26.717Z,6.63
2019-02-23T08:12:55.218Z,7.50
2019-02-23T08:15:23.764Z,7.47
2019-02-23T08:17:52.277Z,5.57
2019-02-23T08:20:20.777Z,10.50
2019-02-23T08:22:49.290Z,8.37
2019-02-23T08:25:17.786Z,7.63
2019-02-23T08:27:46.337Z,14.80
2019-02-23T08:30:16.053Z,17.57
2019-02-23T08:32:44.561Z,13.63
2019-02-23T08:35:13.084Z,13.63
2019-02-23T08:37:41.596Z,16.23
2019-02-23T08:40:12.722Z,10.27
2019-02-23T08:42:41.246Z,20.00
2019-02-23T08:45:10.347Z,19.10
2019-02-23T08:47:38.858Z,7.70
2019-02-23T08:50:13.203Z,16.83
2019-02-23T08:52:49.144Z,9.50
2019-02-23T08:55:11.924Z,9.63
2019-02-23T08:57:40.479Z,10.60
2019-02-23T09:00:11.943Z,4.93
2019-02-23T09:02:40.445Z,6.57
2019-02-23T09:05:10.444Z,33.13
2019-02-23T09:07:38.938Z,7.40
2019-02-23T09:10:10.509Z,5.13
2019-02-23T09:12:39.077Z,6.33
2019-02-23T09:15:08.383Z,9.13
2019-02-23T09:17:36.887Z,8.53
2019-02-23T09:20:07.700Z,8.23
2019-02-23T09:22:36.250Z,6.80
2019-02-23T09:25:06.062Z,14.53
2019-02-23T09:27:34.574Z,6.03
2019-02-23T09:30:03.072Z,7.53
2019-02-23T09:32:31.624Z,7.30
2019-02-23T09:35:00.325Z,9.27
2019-02-23T09:37:28.809Z,31.63
2019-02-23T09:39:57.325Z,27.80
2019-02-23T09:42:25.839Z,11.33
2019-02-23T09:44:54.408Z,14.60
2019-02-23T09:47:22.910Z,10.97
2019-02-23T09:49:51.420Z,15.37
2019-02-23T09:52:19.945Z,8.43
2019-02-23T09:54:48.457Z,14.03
2019-02-23T09:57:17.010Z,10.63
2019-02-23T09:59:45.520Z,14.00
2019-02-23T10:02:14.026Z,10.90
2019-02-23T10:04:42.536Z,15.83
2019-02-23T10:07:11.051Z,9.47
2019-02-23T10:09:39.598Z,8.33
2019-02-23T10:12:08.103Z,9.90
2019-02-23T10:14:36.607Z,8.60
2019-02-23T10:17:05.114Z,7.50
2019-02-23T10:19:33.614Z,10.03
2019-02-23T10:22:02.177Z,7.80
2019-02-23T10:24:30.679Z,7.33
2019-02-23T10:26:59.183Z,6.20
2019-02-23T10:29:27.697Z,14.33
2019-02-23T10:31:56.199Z,11.93
2019-02-23T10:34:26.307Z,9.53
2019-02-23T10:36:54.817Z,11.63
2019-02-23T10:39:23.315Z,15.03
2019-02-23T10:41:51.828Z,15.23
2019-02-23T10:44:20.333Z,12.77
2019-02-23T10:46:48.889Z,14.53
2019-02-23T10:49:18.886Z,7.30
2019-02-23T10:51:47.397Z,12.63
2019-02-23T10:54:15.906Z,23.37
2019-02-23T10:56:44.403Z,10.43
2019-02-23T10:59:12.961Z,14.90
2019-02-23T11:01:41.461Z,9.07
2019-02-23T11:04:09.959Z,7.27
2019-02-23T11:06:38.622Z,5.30
2019-02-23T11:09:08.767Z,8.53
2019-02-23T11:11:37.276Z,9.17
2019-02-23T11:14:05.777Z,11.60
2019-02-23T11:16:34.279Z,7.90
2019-02-23T11:19:04.362Z,6.80
2019-02-23T11:21:32.871Z,13.97
2019-02-23T11:24:01.437Z,12.20
2019-02-23T11:26:29.944Z,30.53
2019-02-23T11:28:58.441Z,7.57
2019-02-23T11:31:26.967Z,33.40
2019-02-23T11:33:55.472Z,25.70
2019-02-23T11:36:24.044Z,13.77
2019-02-23T11:38:52.554Z,12.77
2019-02-23T11:41:21.059Z,9.40
2019-02-23T11:43:49.588Z,33.67
2019-02-23T11:46:18.104Z,13.03
2019-02-23T11:48:46.649Z,8.93
2019-02-23T11:51:15.158Z,8.23
2019-02-23T11:53:54.397Z,10.20
2019-02-23T11:56:13.915Z,10.90
2019-02-23T11:58:42.426Z,10.43
2019-02-23T12:01:10.964Z,8.93
2019-02-23T12:03:39.465Z,9.37
2019-02-23T12:06:07.970Z,14.70
2019-02-23T12:08:36.548Z,7.77
2019-02-23T12:11:05.048Z,9.73
2019-02-23T12:13:33.591Z,10.27
2019-02-23T12:16:02.096Z,9.87
2019-02-23T12:18:30.593Z,12.33
2019-02-23T12:20:59.141Z,13.83
2019-02-23T12:23:27.641Z,7.43
2019-02-23T12:25:56.182Z,6.37
2019-02-23T12:28:24.683Z,9.13
2019-02-23T12:30:53.185Z,8.00
2019-02-23T12:33:21.698Z,6.80
2019-02-23T12:35:50.196Z,8.90
2019-02-23T12:38:18.750Z,7.53
2019-02-23T12:40:47.265Z,6.83
2019-02-23T12:43:15.772Z,9.07
2019-02-23T12:45:44.282Z,7.30
2019-02-23T12:48:12.771Z,7.40
2019-02-23T12:50:41.320Z,10.60
2019-02-23T12:53:09.832Z,11.93
2019-02-23T12:55:38.337Z,7.80
2019-02-23T12:58:06.867Z,9.47
2019-02-23T13:00:35.374Z,11.57
2019-02-23T13:03:03.938Z,9.77
2019-02-23T13:05:32.466Z,6.87
2019-02-23T13:08:00.969Z,11.03
2019-02-23T13:10:29.485Z,11.23
2019-02-23T13:13:07.113Z,8.77
2019-02-23T13:15:38.778Z,15.47
2019-02-23T13:18:33.183Z,37.30
2019-02-23T13:21:10.079Z,27.97
2019-02-23T13:24:00.095Z,32.73
2019-02-23T13:26:56.210Z,26.43
2019-02-23T13:29:44.044Z,10.23
2019-02-23T13:32:41.183Z,11.83
2019-02-23T13:35:25.057Z,8.37
2019-02-23T13:38:13.396Z,8.97
2019-02-23T13:41:12.221Z,8.67
2019-02-23T13:43:46.645Z,9.83
2019-02-23T13:46:18.284Z,10.73
2019-02-23T13:49:05.057Z,17.03
2019-02-23T13:51:49.007Z,15.10
2019-02-23T13:54:23.332Z,9.70
2019-02-23T13:57:00.957Z,14.67
2019-02-23T13:59:55.168Z,16.33
2019-02-23T14:02:26.797Z,16.57
2019-02-23T14:05:01.414Z,12.83
2019-02-23T14:07:35.840Z,16.80
2019-02-23T14:10:19.779Z,14.80
2019-02-23T14:12:51.411Z,12.13
2019-02-23T14:15:45.863Z,11.10
2019-02-23T14:18:36.893Z,12.10
2019-02-23T14:21:37.499Z,12.07
2019-02-23T14:24:14.925Z,44.50
2019-02-23T14:27:10.880Z,13.10
2019-02-23T14:29:48.127Z,15.90
2019-02-23T14:32:25.723Z,31.67
2019-02-23T14:35:19.987Z,12.17
2019-02-23T14:37:54.992Z,13.00
2019-02-23T14:40:32.446Z,13.37
2019-02-23T14:43:21.999Z,16.53
2019-02-23T14:45:59.129Z,15.00
2019-02-23T14:48:55.039Z,17.27
2019-02-23T14:51:34.985Z,12.73
2019-02-23T14:54:21.675Z,14.17
2019-02-23T14:57:26.506Z,15.20
2019-02-23T15:00:04.185Z,32.50
2019-02-23T15:02:54.099Z,24.27
2019-02-23T15:05:37.634Z,28.20
2019-02-23T15:08:21.199Z,18.43
2019-02-23T15:11:01.655Z,12.87
2019-02-23T15:13:51.175Z,23.43
2019-02-23T15:16:47.235Z,31.57
2019-02-23T15:19:30.460Z,24.60
2019-02-23T15:22:17.055Z,48.80
2019-02-23T15:24:54.348Z,12.43
2019-02-23T15:27:34.862Z,17.17
2019-02-23T15:30:15.043Z,11.63
2019-02-23T15:33:06.310Z,13.37
2019-02-23T15:35:56.089Z,13.53
2019-02-23T15:38:30.467Z,12.10
2019-02-23T15:41:14.226Z,10.70
2019-02-23T15:44:05.847Z,10.23
2019-02-23T15:47:12.294Z,12.37
2019-02-23T15:49:41.397Z,28.33
2019-02-23T15:52:10.019Z,60.73
2019-02-23T15:54:38.554Z,84.53
2019-02-23T15:57:07.070Z,18.40
2019-02-23T15:59:35.635Z,13.77
2019-02-23T16:02:04.249Z,14.07
2019-02-23T16:04:32.768Z,15.67
2019-02-23T16:07:01.273Z,9.93
2019-02-23T16:09:29.795Z,12.17
2019-02-23T16:11:58.312Z,10.90
2019-02-23T16:14:26.862Z,8.43
2019-02-23T16:16:55.390Z,12.37
2019-02-23T16:19:23.888Z,8.93
2019-02-23T16:21:53.089Z,9.57
2019-02-23T16:24:21.703Z,12.10
2019-02-23T16:26:50.256Z,9.40
2019-02-23T16:29:18.760Z,7.23
2019-02-23T16:31:47.279Z,7.63
2019-02-23T16:34:15.798Z,10.67
2019-02-23T16:36:44.370Z,11.03
2019-02-23T16:39:12.916Z,19.97
2019-02-23T16:41:41.437Z,32.87
2019-02-23T16:44:09.955Z,76.43
2019-02-23T16:46:38.521Z,28.57
2019-02-23T16:49:07.004Z,11.33
2019-02-23T16:51:35.548Z,9.37
2019-02-23T16:54:04.069Z,11.90
2019-02-23T16:56:33.525Z,8.07
2019-02-23T16:59:02.045Z,12.33
2019-02-23T17:01:30.582Z,11.03
2019-02-23T17:03:59.134Z,7.67
2019-02-23T17:06:27.646Z,8.33
2019-02-23T17:08:56.205Z,12.93
2019-02-23T17:11:24.838Z,8.97
2019-02-23T17:13:53.347Z,6.47
2019-02-23T17:16:22.055Z,10.57
2019-02-23T17:18:50.556Z,5.43
2019-02-23T17:21:19.070Z,9.63
2019-02-23T17:23:47.627Z,11.00
2019-02-23T17:26:16.285Z,10.07
2019-02-23T17:28:44.880Z,11.70
2019-02-23T17:31:13.378Z,42.90
2019-02-23T17:33:41.897Z,55.53
2019-02-23T17:36:10.421Z,21.73
2019-02-23T17:38:38.948Z,12.90
2019-02-23T17:41:07.465Z,13.77
2019-02-23T17:43:35.977Z,28.83
2019-02-23T17:46:04.484Z,9.77
2019-02-23T17:51:01.611Z,19.10
2019-02-23T17:53:30.129Z,19.87
2019-02-23T17:55:58.648Z,19.03
2019-02-23T17:58:27.223Z,19.70
2019-02-23T18:00:56.032Z,12.67
2019-02-23T18:03:24.592Z,14.77
2019-02-23T18:05:53.121Z,11.87
2019-02-23T18:08:21.636Z,17.33
2019-02-23T18:10:50.198Z,16.17
2019-02-23T18:13:18.721Z,13.77
2019-02-23T18:15:47.231Z,9.77
2019-02-23T18:18:15.828Z,9.17
2019-02-23T18:20:44.341Z,14.40
2019-02-23T18:23:12.891Z,7.63
2019-02-23T18:25:41.407Z,13.77
2019-02-23T18:28:09.924Z,14.63
2019-02-23T18:30:38.441Z,12.03
2019-02-23T18:33:06.957Z,10.73
2019-02-23T18:35:35.528Z,11.63
2019-02-23T18:38:04.031Z,9.33
2019-02-23T18:40:32.553Z,8.03
2019-02-23T18:43:01.082Z,9.43
2019-02-23T18:45:29.592Z,6.80
2019-02-23T18:47:58.167Z,6.40
2019-02-23T18:50:26.671Z,5.40
2019-02-23T18:52:55.181Z,13.83
2019-02-23T18:55:24.052Z,17.63
2019-02-23T18:57:52.685Z,9.53
2019-02-23T19:00:24.309Z,7.37
2019-02-23T19:02:51.475Z,6.80
2019-02-23T19:05:20.008Z,12.10
2019-02-23T19:07:48.549Z,13.40
2019-02-23T19:10:17.066Z,23.33
2019-02-23T19:12:45.641Z,16.73
2019-02-23T19:15:14.453Z,14.80
2019-02-23T19:17:42.972Z,15.07
2019-02-23T19:20:13.507Z,12.03
2019-02-23T19:22:42.026Z,13.23
2019-02-23T19:25:13.297Z,10.28
2019-02-23T19:27:41.823Z,8.37
2019-02-23T19:30:14.714Z,18.80
2019-02-23T19:32:43.232Z,25.97
2019-02-23T19:35:11.743Z,15.87
2019-02-23T19:37:40.294Z,30.30
2019-02-23T19:40:09.709Z,27.00
2019-02-23T19:42:38.270Z,33.07
2019-02-23T19:45:09.363Z,36.40
2019-02-23T19:47:38.701Z,45.17
2019-02-23T19:50:10.422Z,28.90
2019-02-23T19:52:38.935Z,37.27
2019-02-23T19:55:10.553Z,44.63
2019-02-23T19:57:39.091Z,35.15
2019-02-23T20:00:09.504Z,18.73
2019-02-23T20:02:38.437Z,23.22
2019-02-23T20:05:08.871Z,32.93
2019-02-23T20:07:37.389Z,36.05
2019-02-23T20:10:08.879Z,35.50
2019-02-23T20:12:37.412Z,28.47
2019-02-23T20:15:08.065Z,30.68
2019-02-23T20:17:36.584Z,33.25
2019-02-23T20:20:06.015Z,32.80
2019-02-23T20:22:34.558Z,28.03
2019-02-23T20:25:03.095Z,29.65
2019-02-23T20:27:31.656Z,20.25
2019-02-23T20:30:00.261Z,20.70
2019-02-23T20:32:28.780Z,19.30
2019-02-23T20:34:57.314Z,14.25
2019-02-23T20:37:25.844Z,18.62
2019-02-23T20:39:54.417Z,22.22
2019-02-23T20:42:22.945Z,13.22
2019-02-23T20:44:51.482Z,16.07
2019-02-23T20:47:20.028Z,16.00
2019-02-23T20:49:50.151Z,8.30
2019-02-23T20:52:18.941Z,13.30
2019-02-23T20:54:47.555Z,10.87
2019-02-23T20:57:16.066Z,18.03
2019-02-23T20:59:44.591Z,13.80
2019-02-23T21:02:13.088Z,12.83
2019-02-23T21:04:41.628Z,16.23
2019-02-23T21:07:10.148Z,11.57
2019-02-23T21:09:38.744Z,18.02
2019-02-23T21:12:07.256Z,12.87
2019-02-23T21:14:35.775Z,12.18
2019-02-23T21:17:04.322Z,9.80
2019-02-23T21:19:32.839Z,9.07
2019-02-23T21:22:01.355Z,12.27
2019-02-23T21:24:30.014Z,9.20
2019-02-23T21:26:58.528Z,7.17
2019-02-23T21:29:27.076Z,9.57
2019-02-23T21:31:55.595Z,10.37
2019-02-23T21:34:24.105Z,12.93
2019-02-23T21:36:52.626Z,16.17
2019-02-23T21:39:21.133Z,15.53
2019-02-23T21:41:49.691Z,15.53
2019-02-23T21:44:18.293Z,13.30
2019-02-23T21:46:46.806Z,9.97
2019-02-23T21:49:15.333Z,12.33
2019-02-23T21:51:43.842Z,13.70
2019-02-23T21:54:12.404Z,7.60
2019-02-23T21:56:40.929Z,7.03
2019-02-23T21:59:09.446Z,8.47
2019-02-23T22:01:37.934Z,7.67
2019-02-23T22:04:06.442Z,8.27
2019-02-23T22:06:35.013Z,12.30
2019-02-23T22:09:03.520Z,9.73
2019-02-23T22:11:32.018Z,7.93
2019-02-23T22:14:00.531Z,6.80
2019-02-23T22:16:29.044Z,6.40
2019-02-23T22:18:57.594Z,6.57
2019-02-23T22:21:26.097Z,7.60
2019-02-23T22:23:54.606Z,6.70
2019-02-23T22:26:23.123Z,4.93
2019-02-23T22:28:51.627Z,6.23
2019-02-23T22:31:20.180Z,6.50
2019-02-23T22:33:48.708Z,7.70
2019-02-23T22:36:17.197Z,6.97
2019-02-23T22:38:45.756Z,5.20
2019-02-23T22:41:14.253Z,7.80
2019-02-23T22:43:42.759Z,6.73
2019-02-23T22:46:11.277Z,6.83
2019-02-23T22:48:39.786Z,6.53
2019-02-23T22:51:08.362Z,6.80
2019-02-23T22:53:36.875Z,7.20
2019-02-23T22:56:05.389Z,6.63
2019-02-23T22:58:33.904Z,6.10
2019-02-23T23:01:04.013Z,8.00
2019-02-23T23:03:32.563Z,6.23
2019-02-23T23:06:01.074Z,5.70
2019-02-23T23:08:29.583Z,6.23
2019-02-23T23:10:58.098Z,6.00
2019-02-23T23:13:26.609Z,5.67
2019-02-23T23:15:55.181Z,4.57
2019-02-23T23:18:23.696Z,4.37
2019-02-23T23:20:52.215Z,5.50
2019-02-23T23:23:20.735Z,8.03
2019-02-23T23:25:49.245Z,5.70
2019-02-23T23:28:17.808Z,6.30
2019-02-23T23:30:46.325Z,6.08
2019-02-23T23:33:14.825Z,6.87
2019-02-23T23:35:43.350Z,7.17
2019-02-23T23:38:11.860Z,7.27
2019-02-23T23:40:40.409Z,8.53
2019-02-23T23:43:08.936Z,7.80
2019-02-23T23:45:37.454Z,8.38
2019-02-23T23:48:05.979Z,8.88
2019-02-23T23:50:34.495Z,9.45
2019-02-23T23:53:03.049Z,8.10
2019-02-23T23:55:31.546Z,9.00
2019-02-23T23:58:00.066Z,9.00
